Bradford County (N27)
Towanda, PA
Field Elevation: 730
Lat: 41°44.40N  Long: 76°26.83W
CTAF/Unicom Freq: 123.0000
   
     For Weather-by-Phone, call (570) 265-1024
Weather Advisories
10/1/2014 16:10 Z
Altimeter 30.08" Hg
Wind 170° @ 0 KT
Gusts --
Visibility 9 SM
Ceiling FEW020 SCT150
Temperature 19° C (66° F)
Dewpoint 16° C (61° F)
Relative Humidity 83%
Density Altitude --
Condensation Altitude 2,400 feet
  Wind and Runways
Indicated Runway = 23
History
 
 
More Info
All DigiWx sites map
NOAA Forecast
 
Airport IQ 5010
(LHV) Lock Haven
(PS81) Robert Packer Hospital
 
about DigiWx
 
FAA Disclaimer: The data displayed is for advisory purposes only and is not to be used for flight planning or operations. For official data, please call (570) 265-1024 to hear the current automated AWOS voice message.
  METAR N27 011610Z AUTO 17000KT 9SM FEW020 SCT150 19/16 A3008